Time;durP1;ratioP1;P1;durP2;ratioP2;P2;SDS_P1;SDS_P2;PMS_P1;PMS_P2;Temp;Humidity;BMP_temperature;BMP_pressure;BME280_temperature;BME280_humidity;BME280_pressure;Samples;Min_cycle;Max_cycle;Signal;HPM_P1;HPM_P2
2021/09/02 00:00:30;;;;;;;14.65;4.00;;;38.00;45.10;;;;;;5046769;28;20101;-63
2021/09/02 00:02:56;;;;;;;13.63;4.78;;;38.00;46.00;;;;;;5046380;28;20077;-63
2021/09/02 00:05:23;;;;;;;17.88;5.07;;;38.00;44.60;;;;;;5044604;28;20431;-63
2021/09/02 00:07:50;;;;;;;14.18;4.45;;;38.10;45.00;;;;;;5046975;28;20070;-62
2021/09/02 00:10:18;;;;;;;15.68;4.07;;;38.10;44.80;;;;;;5045630;28;20496;-62
2021/09/02 00:12:45;;;;;;;20.65;4.90;;;38.10;46.10;;;;;;5046645;28;20488;-63
2021/09/02 00:15:11;;;;;;;17.02;5.20;;;37.80;44.70;;;;;;5045221;28;20182;-62
2021/09/02 00:17:38;;;;;;;26.73;5.32;;;37.70;45.00;;;;;;5042869;28;20454;-60
2021/09/02 00:20:05;;;;;;;19.98;5.15;;;37.60;45.40;;;;;;5047662;28;20374;-60
2021/09/02 00:22:32;;;;;;;15.50;4.45;;;37.60;45.70;;;;;;5044705;28;20410;-60
2021/09/02 00:24:58;;;;;;;9.73;4.75;;;37.40;45.30;;;;;;5045244;28;20085;-61
2021/09/02 00:27:25;;;;;;;14.68;4.45;;;37.20;45.70;;;;;;5042479;28;20164;-60
2021/09/02 00:29:51;;;;;;;15.68;4.55;;;37.20;45.80;;;;;;5045471;28;20083;-58
2021/09/02 00:32:18;;;;;;;18.17;4.78;;;37.20;45.70;;;;;;5046255;28;20545;-60
2021/09/02 00:34:45;;;;;;;22.67;5.40;;;37.10;46.10;;;;;;5044537;28;20078;-59
2021/09/02 00:37:12;;;;;;;20.70;5.38;;;37.00;46.70;;;;;;5044903;28;20453;-59
2021/09/02 00:39:38;;;;;;;10.95;4.63;;;36.90;46.60;;;;;;5044600;28;20562;-58
2021/09/02 00:42:05;;;;;;;14.57;4.63;;;36.20;76.40;;;;;;5043499;28;20082;-60
2021/09/02 00:44:47;;;;;;;17.73;5.35;;;36.70;47.40;;;;;;5046224;28;20079;-59
2021/09/02 00:47:15;;;;;;;27.60;5.05;;;36.70;47.30;;;;;;5044776;28;20064;-58
2021/09/02 00:49:44;;;;;;;14.13;4.70;;;36.70;49.50;;;;;;5042239;28;20113;-60
2021/09/02 00:52:26;;;;;;;16.05;4.63;;;36.60;47.50;;;;;;5024750;28;20066;-60
2021/09/02 00:54:55;;;;;;;17.08;5.50;;;36.40;48.50;;;;;;5045973;28;20069;-59
2021/09/02 00:57:25;;;;;;;23.67;5.07;;;36.30;47.80;;;;;;5044984;28;20077;-57
2021/09/02 00:59:56;;;;;;;24.98;5.72;;;36.30;48.40;;;;;;5043701;28;20554;-60
2021/09/02 01:02:26;;;;;;;23.98;4.95;;;36.30;48.70;;;;;;5045272;28;20047;-57
2021/09/02 01:04:58;;;;;;;15.77;4.75;;;36.20;48.90;;;;;;5042099;28;20147;-57
2021/09/02 01:07:27;;;;;;;19.15;5.10;;;35.90;48.60;;;;;;5035518;28;20171;-59
2021/09/02 01:09:55;;;;;;;16.35;4.93;;;36.10;74.10;;;;;;5042980;28;20054;-59
2021/09/02 01:12:48;;;;;;;19.98;5.28;;;35.90;49.10;;;;;;5044108;28;20409;-55
2021/09/02 01:15:22;;;;;;;15.48;5.13;;;35.80;49.30;;;;;;5046678;28;20073;-57
2021/09/02 01:17:51;;;;;;;14.30;4.75;;;35.70;49.50;;;;;;5044816;28;20136;-65
2021/09/02 01:20:22;;;;;;;14.35;4.57;;;35.60;48.90;;;;;;5042434;28;20105;-60
2021/09/02 01:22:52;;;;;;;22.63;5.97;;;35.40;49.70;;;;;;5041281;28;20078;-60
2021/09/02 01:25:24;;;;;;;19.73;4.72;;;35.40;50.00;;;;;;5058873;28;20089;-58
2021/09/02 01:27:54;;;;;;;14.93;5.20;;;35.20;50.40;;;;;;5045997;28;20543;-62
2021/09/02 01:30:21;;;;;;;12.02;5.20;;;35.10;50.80;;;;;;5040993;28;20101;-60
2021/09/02 01:32:50;;;;;;;24.50;6.13;;;35.10;50.80;;;;;;5040225;28;20108;-58
2021/09/02 01:35:18;;;;;;;18.27;5.40;;;35.00;50.90;;;;;;5042527;28;20069;-60
2021/09/02 01:37:55;;;;;;;19.48;5.78;;;34.80;51.10;;;;;;5042943;28;20111;-55
2021/09/02 01:40:46;;;;;;;27.63;6.03;;;34.80;51.40;;;;;;5042216;28;20097;-59
2021/09/02 01:43:16;;;;;;;14.82;5.82;;;34.70;51.50;;;;;;5042866;28;20081;-59
2021/09/02 01:45:43;;;;;;;19.77;5.45;;;34.60;51.30;;;;;;5044276;28;20126;-55
2021/09/02 01:48:10;;;;;;;23.95;5.45;;;34.50;51.80;;;;;;5041190;28;20089;-57
2021/09/02 01:50:42;;;;;;;21.70;5.28;;;34.30;55.80;;;;;;5041228;28;20060;-59
2021/09/02 01:53:13;;;;;;;15.70;5.55;;;34.40;51.80;;;;;;5045765;28;20131;-59
2021/09/02 01:55:46;;;;;;;23.25;5.97;;;34.20;52.20;;;;;;5045930;28;20074;-59
2021/09/02 01:58:13;;;;;;;17.88;5.70;;;34.20;52.20;;;;;;5040992;28;20069;-55
2021/09/02 02:00:40;;;;;;;21.00;5.65;;;34.20;52.50;;;;;;5044092;28;20450;-59
2021/09/02 02:03:07;;;;;;;18.75;5.38;;;34.10;52.60;;;;;;5044172;28;20153;-60
2021/09/02 02:05:34;;;;;;;23.35;5.88;;;34.00;52.80;;;;;;5043819;28;20077;-59
2021/09/02 02:08:02;;;;;;;16.15;5.45;;;34.00;52.90;;;;;;5044447;28;20407;-59
2021/09/02 02:10:30;;;;;;;24.88;5.90;;;33.80;52.80;;;;;;5044730;28;20132;-58
2021/09/02 02:12:59;;;;;;;19.35;5.45;;;33.70;53.20;;;;;;5049589;28;20077;-58
2021/09/02 02:15:27;;;;;;;19.70;5.50;;;33.60;53.00;;;;;;5044522;28;20086;-57
2021/09/02 02:17:54;;;;;;;20.02;5.82;;;33.80;90.40;;;;;;5045728;28;20022;-56
2021/09/02 02:20:21;;;;;;;20.80;5.18;;;33.40;93.20;;;;;;5048526;28;20157;-58
2021/09/02 02:25:12;;;;;;;13.13;4.75;;;33.40;53.70;;;;;;5101131;27;20458;-58
2021/09/02 02:27:39;;;;;;;24.30;6.65;;;33.30;64.70;;;;;;5105331;28;20483;-58
2021/09/02 02:30:09;;;;;;;20.63;6.50;;;33.40;53.50;;;;;;5103066;28;20104;-56
2021/09/02 02:32:35;;;;;;;23.67;5.45;;;33.30;58.70;;;;;;5102219;28;20121;-58
2021/09/02 02:35:03;;;;;;;20.67;5.32;;;33.30;53.90;;;;;;5103353;28;20506;-59
2021/09/02 02:37:30;;;;;;;22.27;5.95;;;33.40;56.20;;;;;;5104132;28;20156;-55
2021/09/02 02:39:56;;;;;;;20.83;5.85;;;33.30;54.00;;;;;;5104832;28;20069;-58
2021/09/02 02:42:23;;;;;;;20.55;5.82;;;33.20;54.00;;;;;;5104796;28;20077;-57
2021/09/02 02:44:49;;;;;;;23.63;5.82;;;32.90;61.30;;;;;;5104898;28;20561;-56
2021/09/02 02:47:16;;;;;;;28.88;6.00;;;33.10;55.00;;;;;;5103029;28;20125;-55
2021/09/02 02:49:42;;;;;;;27.58;6.88;;;33.10;54.70;;;;;;5137639;27;20119;-59
2021/09/02 02:52:09;;;;;;;26.70;6.43;;;33.00;54.80;;;;;;5104719;28;20072;-57
2021/09/02 02:54:36;;;;;;;26.08;6.75;;;32.90;55.20;;;;;;5105056;28;20079;-57
2021/09/02 02:57:03;;;;;;;20.77;6.40;;;32.90;55.40;;;;;;5105845;28;20122;-58
2021/09/02 02:59:29;;;;;;;26.52;7.75;;;32.80;55.60;;;;;;5104980;28;20080;-58
2021/09/02 03:01:56;;;;;;;32.00;7.85;;;32.80;55.80;;;;;;5104800;28;20077;-58
2021/09/02 03:04:24;;;;;;;25.35;7.57;;;32.70;56.00;;;;;;5104394;28;20096;-58
2021/09/02 03:06:51;;;;;;;26.58;6.97;;;32.60;56.50;;;;;;5102989;28;20084;-55
2021/09/02 03:09:17;;;;;;;25.63;6.95;;;32.60;56.40;;;;;;5103922;28;20073;-56
2021/09/02 03:11:44;;;;;;;24.20;7.10;;;32.60;56.80;;;;;;5105090;28;20126;-57
2021/09/02 03:14:10;;;;;;;16.38;6.57;;;32.50;57.00;;;;;;5105779;28;20080;-58
2021/09/02 03:16:37;;;;;;;23.77;7.47;;;32.50;57.20;;;;;;5103693;28;20072;-57
2021/09/02 03:19:04;;;;;;;29.20;7.88;;;32.50;57.30;;;;;;5104451;28;20081;-57
2021/09/02 03:21:30;;;;;;;30.55;7.72;;;32.40;57.50;;;;;;5106268;28;20079;-56
2021/09/02 03:23:57;;;;;;;28.00;8.05;;;32.40;57.70;;;;;;5137504;27;20169;-58
2021/09/02 03:26:23;;;;;;;31.75;7.75;;;32.40;57.80;;;;;;5106107;28;20168;-57
2021/09/02 03:28:50;;;;;;;17.83;7.03;;;32.30;57.90;;;;;;5106222;28;20160;-58
2021/09/02 03:31:16;;;;;;;31.38;8.20;;;32.30;58.20;;;;;;5105494;28;20296;-56
2021/09/02 03:33:43;;;;;;;20.55;7.45;;;32.20;58.40;;;;;;5105247;28;20432;-56
2021/09/02 03:36:10;;;;;;;28.75;8.18;;;32.20;58.50;;;;;;5093469;28;20498;-59
2021/09/02 03:38:36;;;;;;;28.42;7.70;;;32.20;58.50;;;;;;5090200;28;20448;-59
2021/09/02 03:41:03;;;;;;;26.05;7.65;;;32.10;58.80;;;;;;5092616;28;21506;-58
2021/09/02 03:43:29;;;;;;;33.75;8.13;;;32.00;59.20;;;;;;5091516;28;20134;-58
2021/09/02 03:45:56;;;;;;;27.40;8.55;;;32.00;59.60;;;;;;5090935;28;20064;-59
2021/09/02 03:48:22;;;;;;;27.15;8.35;;;32.00;59.70;;;;;;5092018;28;20076;-59
2021/09/02 03:50:49;;;;;;;36.50;8.63;;;31.80;60.00;;;;;;5091214;28;20064;-59
2021/09/02 03:53:15;;;;;;;27.17;8.75;;;31.80;60.50;;;;;;5090161;28;20547;-56
2021/09/02 03:55:42;;;;;;;31.42;8.38;;;31.80;60.60;;;;;;5091280;28;20125;-58
2021/09/02 03:58:09;;;;;;;24.08;8.65;;;31.80;61.00;;;;;;5090986;28;20073;-58
2021/09/02 04:00:35;;;;;;;24.17;8.90;;;31.80;61.20;;;;;;5091985;28;20067;-59
2021/09/02 04:03:02;;;;;;;27.08;8.82;;;31.80;61.60;;;;;;5091280;28;20084;-59
2021/09/02 04:05:29;;;;;;;25.98;8.75;;;31.70;61.60;;;;;;5090742;28;20073;-57
2021/09/02 04:07:55;;;;;;;35.55;10.38;;;31.70;61.80;;;;;;5090349;28;20161;-57
2021/09/02 04:10:22;;;;;;;26.10;8.65;;;31.70;62.30;;;;;;5091544;28;20087;-58
2021/09/02 04:12:48;;;;;;;24.67;9.02;;;31.60;62.10;;;;;;5090489;28;20073;-57
2021/09/02 04:15:15;;;;;;;27.05;7.57;;;31.60;62.60;;;;;;5091662;28;20441;-56
2021/09/02 04:17:41;;;;;;;20.42;7.25;;;31.50;63.10;;;;;;5090341;28;20079;-58
2021/09/02 04:20:08;;;;;;;19.95;7.60;;;31.50;63.40;;;;;;5090771;28;20073;-59
2021/09/02 04:22:35;;;;;;;20.42;6.63;;;31.40;63.80;;;;;;5090892;28;20088;-57
2021/09/02 04:25:01;;;;;;;20.42;7.15;;;31.40;63.90;;;;;;5090110;28;20117;-57
2021/09/02 04:27:29;;;;;;;25.83;6.97;;;31.50;64.20;;;;;;5090804;28;20160;-58
2021/09/02 04:29:55;;;;;;;27.00;6.70;;;31.40;63.80;;;;;;5088971;28;20073;-59
2021/09/02 04:32:21;;;;;;;18.58;6.88;;;31.40;64.50;;;;;;5090014;28;20075;-58
2021/09/02 04:34:48;;;;;;;28.45;7.13;;;31.40;64.80;;;;;;5091320;28;20077;-57
2021/09/02 04:37:14;;;;;;;30.58;7.22;;;31.40;65.00;;;;;;5089022;28;20548;-56
2021/09/02 04:39:41;;;;;;;22.17;6.90;;;31.30;65.80;;;;;;5089414;28;20074;-58
2021/09/02 04:42:07;;;;;;;21.38;7.18;;;31.20;65.90;;;;;;5089680;28;20085;-59
2021/09/02 04:44:34;;;;;;;21.15;7.28;;;31.20;90.70;;;;;;5089255;28;20092;-58
2021/09/02 04:47:00;;;;;;;28.98;8.18;;;31.20;66.60;;;;;;5088602;28;20079;-58
2021/09/02 04:49:27;;;;;;;29.60;7.72;;;31.20;66.90;;;;;;5088319;28;20115;-58
2021/09/02 04:51:53;;;;;;;24.98;8.75;;;31.10;67.30;;;;;;5090024;28;20118;-56
2021/09/02 04:54:20;;;;;;;27.02;8.55;;;31.00;68.10;;;;;;5089661;28;20076;-58
2021/09/02 04:56:46;;;;;;;23.10;8.25;;;31.00;68.50;;;;;;5089759;28;20068;-59
2021/09/02 04:59:13;;;;;;;19.80;8.27;;;31.00;68.60;;;;;;5088010;28;20084;-59
2021/09/02 05:01:39;;;;;;;32.80;8.00;;;30.90;69.10;;;;;;5090216;28;20440;-60
2021/09/02 05:04:06;;;;;;;31.98;9.05;;;30.90;70.00;;;;;;5089694;28;20107;-59
2021/09/02 05:06:32;;;;;;;26.92;8.68;;;30.80;69.80;;;;;;5090160;28;20092;-59
2021/09/02 05:08:59;;;;;;;18.73;8.57;;;30.80;70.40;;;;;;5087767;28;20081;-59
2021/09/02 05:11:25;;;;;;;30.33;10.02;;;30.70;70.70;;;;;;5087628;28;20160;-57
2021/09/02 05:13:51;;;;;;;31.85;10.05;;;30.70;70.90;;;;;;5088307;28;20085;-60
2021/09/02 05:16:18;;;;;;;23.88;9.68;;;30.60;71.00;;;;;;5087054;28;20134;-59
2021/09/02 05:18:44;;;;;;;30.23;9.75;;;30.50;71.70;;;;;;5091824;28;20086;-58
2021/09/02 05:21:11;;;;;;;22.80;9.23;;;30.60;71.40;;;;;;5088883;28;20065;-59
2021/09/02 05:23:37;;;;;;;19.60;9.02;;;30.60;71.90;;;;;;5089448;28;20248;-59
2021/09/02 05:26:04;;;;;;;24.30;8.55;;;30.60;72.10;;;;;;5088311;28;20081;-57
2021/09/02 05:28:30;;;;;;;22.13;9.07;;;30.40;73.10;;;;;;5089967;28;20110;-58
2021/09/02 05:30:57;;;;;;;29.33;8.68;;;30.50;73.20;;;;;;5090637;28;20079;-57
2021/09/02 05:33:23;;;;;;;30.10;9.00;;;30.50;73.20;;;;;;5089314;28;20111;-59
2021/09/02 05:35:50;;;;;;;30.63;9.02;;;30.50;73.10;;;;;;5089157;28;20494;-59
2021/09/02 05:38:16;;;;;;;30.25;8.15;;;30.50;73.40;;;;;;5090195;28;20097;-59
2021/09/02 05:40:45;;;;;;;22.80;8.13;;;30.40;74.00;;;;;;5090512;28;20077;-58
2021/09/02 05:43:11;;;;;;;22.33;7.63;;;30.40;74.40;;;;;;5086881;28;20100;-59
2021/09/02 05:45:38;;;;;;;27.55;7.53;;;30.50;74.20;;;;;;5088420;28;20073;-59
2021/09/02 05:48:04;;;;;;;21.88;7.75;;;30.50;74.10;;;;;;5088013;28;20499;-59
2021/09/02 05:50:31;;;;;;;28.77;8.55;;;30.40;76.50;;;;;;5089075;28;20159;-59
2021/09/02 05:52:58;;;;;;;19.15;8.38;;;30.50;74.00;;;;;;5088023;28;20448;-59
2021/09/02 05:55:24;;;;;;;26.58;9.70;;;30.40;74.70;;;;;;5090364;28;20118;-59
2021/09/02 05:57:50;;;;;;;29.10;9.13;;;30.50;76.80;;;;;;5087700;28;20072;-59
2021/09/02 06:00:17;;;;;;;27.58;8.45;;;30.50;75.60;;;;;;5085512;28;20072;-61
2021/09/02 06:02:44;;;;;;;23.15;8.50;;;30.40;76.70;;;;;;5088033;28;20524;-60
2021/09/02 06:05:10;;;;;;;21.27;8.23;;;30.50;75.90;;;;;;5087818;28;20100;-61
2021/09/02 06:07:37;;;;;;;25.42;7.90;;;30.50;75.90;;;;;;5086436;28;20083;-59
2021/09/02 06:10:05;;;;;;;22.48;8.70;;;30.40;75.00;;;;;;5084979;28;20092;-60
2021/09/02 06:12:31;;;;;;;23.30;8.63;;;30.30;75.40;;;;;;5087353;28;20095;-60
2021/09/02 06:14:58;;;;;;;27.00;8.75;;;30.40;76.30;;;;;;5089207;28;20084;-60
2021/09/02 06:17:24;;;;;;;22.08;9.05;;;30.40;76.50;;;;;;5087174;28;20069;-55
2021/09/02 06:19:51;;;;;;;21.38;7.90;;;30.40;76.50;;;;;;5087670;28;20567;-60
2021/09/02 06:22:17;;;;;;;20.17;7.03;;;30.40;75.60;;;;;;5085229;28;20149;-59
2021/09/02 06:24:44;;;;;;;22.73;7.43;;;30.40;75.70;;;;;;5086852;28;20170;-59
2021/09/02 06:27:10;;;;;;;20.77;7.60;;;30.30;76.40;;;;;;5086539;28;20114;-59
2021/09/02 06:29:37;;;;;;;27.58;7.93;;;;;;;;;;5088504;28;20083;-59
2021/09/02 06:32:04;;;;;;;22.15;7.38;;;30.30;76.10;;;;;;5088785;28;20077;-59
2021/09/02 06:34:30;;;;;;;20.55;7.82;;;30.20;76.30;;;;;;5088447;28;20073;-58
2021/09/02 06:36:57;;;;;;;32.05;9.60;;;30.20;76.30;;;;;;5088366;28;20072;-60
2021/09/02 06:39:23;;;;;;;20.70;9.13;;;30.20;77.20;;;;;;5088198;28;20081;-60
2021/09/02 06:41:50;;;;;;;21.88;8.80;;;30.00;83.30;;;;;;5087868;28;20072;-60
2021/09/02 06:44:16;;;;;;;28.75;9.52;;;30.20;77.00;;;;;;5088138;28;20097;-60
2021/09/02 06:46:42;;;;;;;30.58;9.60;;;30.20;77.70;;;;;;5088193;28;20151;-59
2021/09/02 06:49:09;;;;;;;22.83;8.20;;;30.20;77.90;;;;;;5085005;28;20080;-61
2021/09/02 06:51:39;;;;;;;23.17;8.70;;;30.10;78.10;;;;;;5086618;28;20461;-58
2021/09/02 06:54:06;;;;;;;20.63;8.65;;;30.20;78.40;;;;;;5087484;28;20083;-59
2021/09/02 06:56:32;;;;;;;25.08;8.50;;;30.10;78.70;;;;;;5088164;28;20077;-60
2021/09/02 06:58:59;;;;;;;25.05;9.48;;;30.00;94.00;;;;;;5085139;28;20070;-56
2021/09/02 07:01:25;;;;;;;22.33;8.93;;;30.10;79.40;;;;;;5086643;28;20073;-55
2021/09/02 07:03:52;;;;;;;25.55;7.97;;;30.00;79.60;;;;;;5086541;28;20632;-57
2021/09/02 07:06:18;;;;;;;21.70;8.30;;;30.00;79.40;;;;;;5085932;28;20076;-59
2021/09/02 07:08:45;;;;;;;23.40;7.95;;;30.00;95.10;;;;;;5087080;28;20101;-59
2021/09/02 07:11:11;;;;;;;18.42;7.15;;;30.00;80.70;;;;;;5089158;28;20453;-59
2021/09/02 07:13:38;;;;;;;17.23;7.50;;;30.00;80.60;;;;;;5089657;28;20040;-58
2021/09/02 07:16:05;;;;;;;15.00;7.35;;;29.90;91.30;;;;;;5089201;28;20108;-58
2021/09/02 07:18:32;;;;;;;22.85;7.35;;;30.00;81.10;;;;;;5092520;28;20079;-59
2021/09/02 07:20:58;;;;;;;20.15;7.80;;;30.00;81.10;;;;;;5091288;28;20110;-59
2021/09/02 07:23:25;;;;;;;17.38;7.05;;;29.90;80.80;;;;;;5091165;28;20135;-58
2021/09/02 07:25:51;;;;;;;15.52;6.65;;;29.90;82.80;;;;;;5089502;28;20083;-58
2021/09/02 07:28:18;;;;;;;24.00;6.70;;;29.90;92.60;;;;;;5090565;28;20100;-58
2021/09/02 07:30:44;;;;;;;17.40;6.90;;;29.90;81.00;;;;;;5090732;28;20155;-59
2021/09/02 07:33:11;;;;;;;18.40;7.40;;;29.90;81.60;;;;;;5089806;28;20119;-59
2021/09/02 07:35:38;;;;;;;21.48;7.45;;;29.80;81.30;;;;;;5090293;28;20083;-58
2021/09/02 07:38:06;;;;;;;20.15;7.65;;;29.90;81.50;;;;;;5090882;28;20077;-59
2021/09/02 07:40:34;;;;;;;19.38;7.28;;;29.80;81.40;;;;;;5090223;28;20108;-58
2021/09/02 07:43:00;;;;;;;19.95;7.40;;;29.70;81.70;;;;;;5091669;28;20130;-59
2021/09/02 07:45:27;;;;;;;14.32;6.93;;;29.70;82.10;;;;;;5089858;28;20064;-59
2021/09/02 07:47:54;;;;;;;18.23;6.88;;;29.70;82.00;;;;;;5090416;28;20444;-60
2021/09/02 07:50:21;;;;;;;22.13;6.75;;;29.70;82.30;;;;;;5087471;28;20069;-59
2021/09/02 07:52:47;;;;;;;22.02;7.15;;;29.70;83.20;;;;;;5089867;28;20065;-55
2021/09/02 07:55:15;;;;;;;20.88;7.25;;;29.60;83.60;;;;;;5091263;28;20130;-58
2021/09/02 07:57:47;;;;;;;19.88;6.65;;;29.50;83.90;;;;;;5089952;28;20080;-59
2021/09/02 08:00:14;;;;;;;22.20;7.60;;;29.50;83.80;;;;;;5091645;28;20077;-60
2021/09/02 08:02:41;;;;;;;22.98;7.13;;;29.50;83.90;;;;;;5089267;28;20167;-57
2021/09/02 08:05:09;;;;;;;20.42;7.70;;;29.60;84.10;;;;;;5092385;28;20088;-60
2021/09/02 08:07:50;;;;;;;17.30;7.07;;;29.60;83.70;;;;;;5090124;28;20080;-59
2021/09/02 08:10:20;;;;;;;15.95;6.78;;;29.60;83.20;;;;;;5090037;28;20071;-59
2021/09/02 08:12:47;;;;;;;21.80;7.53;;;29.60;83.90;;;;;;5088713;28;20143;-59
2021/09/02 08:15:16;;;;;;;21.77;7.45;;;29.50;84.80;;;;;;5089759;28;20079;-60
2021/09/02 08:17:43;;;;;;;19.48;7.45;;;29.50;84.60;;;;;;5090766;28;20084;-58
2021/09/02 08:20:13;;;;;;;15.63;6.35;;;29.50;84.70;;;;;;5090817;28;20077;-57
2021/09/02 08:22:40;;;;;;;17.48;6.80;;;29.50;85.00;;;;;;5089129;28;20072;-57
2021/09/02 08:25:09;;;;;;;21.08;6.78;;;29.50;84.90;;;;;;5087404;28;20113;-58
2021/09/02 08:27:36;;;;;;;24.83;7.43;;;29.50;85.00;;;;;;5091958;28;20072;-60
2021/09/02 08:30:04;;;;;;;19.83;7.43;;;29.50;85.50;;;;;;5089364;28;20076;-60
2021/09/02 08:32:30;;;;;;;16.65;7.32;;;29.50;85.30;;;;;;5088262;28;20077;-58
2021/09/02 08:34:57;;;;;;;23.38;7.15;;;29.40;85.50;;;;;;5089160;28;20389;-60
2021/09/02 08:37:23;;;;;;;16.73;6.97;;;29.50;86.10;;;;;;5089064;28;20602;-60
2021/09/02 08:39:51;;;;;;;16.60;6.32;;;29.30;86.20;;;;;;5089334;28;20077;-59
2021/09/02 08:42:22;;;;;;;15.48;6.50;;;30.60;90.00;;;;;;5090953;28;20068;-59
2021/09/02 08:44:49;;;;;;;18.77;6.45;;;29.20;87.90;;;;;;5091383;28;20103;-55
2021/09/02 08:47:19;;;;;;;16.70;6.22;;;29.10;99.90;;;;;;5090251;28;20119;-60
2021/09/02 08:49:58;;;;;;;;;;;;;;;;;;;;;
2021/09/02 08:52:27;;;;;;;20.13;6.75;;;29.20;88.10;;;;;;5088900;28;20103;-59
2021/09/02 08:54:54;;;;;;;16.52;6.10;;;29.20;88.60;;;;;;5087470;28;20089;-60
2021/09/02 08:57:20;;;;;;;12.80;6.38;;;29.20;88.30;;;;;;5090032;28;20072;-59
2021/09/02 08:59:47;;;;;;;17.50;6.97;;;29.20;89.10;;;;;;5089612;28;20081;-60
2021/09/02 09:02:28;;;;;;;14.18;6.10;;;29.10;88.90;;;;;;5088605;28;20112;-58
2021/09/02 09:05:09;;;;;;;16.15;6.68;;;29.10;89.50;;;;;;5087521;28;20570;-60
2021/09/02 09:07:40;;;;;;;17.63;6.28;;;29.10;90.00;;;;;;5089411;28;20142;-59
2021/09/02 09:10:31;;;;;;;12.18;6.00;;;29.10;90.10;;;;;;5088951;28;20080;-60
2021/09/02 09:13:00;;;;;;;17.73;6.15;;;29.10;90.20;;;;;;5089056;28;20167;-59
2021/09/02 09:15:36;;;;;;;18.13;6.80;;;29.10;90.30;;;;;;5088764;28;20130;-60
2021/09/02 09:18:20;;;;;;;20.48;7.60;;;29.10;90.30;;;;;;5087028;28;20088;-60
2021/09/02 09:21:06;;;;;;;17.35;7.55;;;29.00;90.50;;;;;;5088293;28;20125;-60
2021/09/02 09:24:02;;;;;;;16.67;8.13;;;29.00;90.60;;;;;;5089465;28;20108;-60
2021/09/02 09:26:30;;;;;;;15.63;6.80;;;28.80;90.70;;;;;;5088061;28;20163;-60
2021/09/02 09:28:58;;;;;;;21.15;7.75;;;28.80;91.20;;;;;;5089083;28;20069;-58
2021/09/02 09:31:33;;;;;;;21.02;7.82;;;28.80;91.10;;;;;;5088335;28;20552;-58
2021/09/02 09:34:06;;;;;;;15.07;6.10;;;28.70;91.30;;;;;;5087701;28;20072;-58
2021/09/02 09:36:35;;;;;;;12.45;6.20;;;28.70;91.60;;;;;;5089184;28;20091;-60
2021/09/02 09:39:13;;;;;;;16.35;6.55;;;30.10;96.30;;;;;;5086911;28;20080;-60
2021/09/02 09:41:45;;;;;;;17.67;7.28;;;28.60;99.90;;;;;;5087573;28;20439;-60
2021/09/02 09:44:27;;;;;;;18.42;7.82;;;28.10;99.90;;;;;;5086592;28;20089;-60
2021/09/02 09:47:10;;;;;;;22.27;8.52;;;28.50;92.80;;;;;;5088328;28;20081;-60
2021/09/02 09:49:55;;;;;;;21.85;8.13;;;28.40;93.10;;;;;;5089381;28;20072;-60
2021/09/02 09:52:35;;;;;;;18.27;7.25;;;28.40;93.70;;;;;;5088003;28;20522;-60
2021/09/02 09:55:16;;;;;;;17.88;7.60;;;28.40;93.70;;;;;;5087621;28;20090;-60
2021/09/02 09:57:46;;;;;;;16.77;7.38;;;28.40;93.80;;;;;;5087122;28;20080;-59
2021/09/02 10:00:18;;;;;;;18.65;6.97;;;28.40;93.70;;;;;;5088217;28;20433;-60
2021/09/02 10:02:50;;;;;;;17.80;7.65;;;28.30;94.00;;;;;;5088235;28;20075;-60
2021/09/02 10:05:18;;;;;;;22.00;7.47;;;28.30;94.10;;;;;;5089367;28;20517;-58
2021/09/02 10:07:47;;;;;;;17.85;7.63;;;28.30;94.10;;;;;;5087016;28;20069;-60
2021/09/02 10:10:16;;;;;;;21.65;7.70;;;28.30;94.20;;;;;;5087153;28;20123;-59
2021/09/02 10:12:44;;;;;;;16.25;7.68;;;28.30;94.10;;;;;;5088831;28;20077;-59
2021/09/02 10:15:16;;;;;;;18.83;7.25;;;28.30;93.90;;;;;;5088655;28;20080;-60
2021/09/02 10:17:44;;;;;;;22.20;8.07;;;28.20;94.20;;;;;;5088532;28;20071;-58
2021/09/02 10:20:18;;;;;;;16.00;7.72;;;28.20;94.70;;;;;;5087623;28;20075;-59
2021/09/02 10:22:47;;;;;;;19.00;7.38;;;28.00;97.90;;;;;;5084266;28;20112;-61
2021/09/02 10:28:00;;;;;;;14.45;7.30;;;28.00;95.00;;;;;;5087227;28;20087;-58
2021/09/02 10:30:28;;;;;;;17.38;7.32;;;28.10;95.40;;;;;;5087997;28;20102;-59
2021/09/02 10:32:57;;;;;;;17.60;6.90;;;28.10;95.40;;;;;;5087732;28;20479;-57
2021/09/02 10:35:31;;;;;;;17.92;7.65;;;28.10;95.20;;;;;;5088230;28;20082;-59
2021/09/02 10:37:57;;;;;;;15.85;6.55;;;28.10;95.40;;;;;;5086369;28;20076;-58
2021/09/02 10:40:26;;;;;;;17.25;7.65;;;28.10;94.40;;;;;;5087381;28;20540;-58
2021/09/02 10:42:57;;;;;;;19.23;7.82;;;28.00;94.70;;;;;;5086778;28;20083;-59
2021/09/02 10:45:36;;;;;;;20.85;8.25;;;28.00;95.00;;;;;;5087114;28;20096;-60
2021/09/02 10:48:06;;;;;;;18.05;7.82;;;27.90;94.90;;;;;;5092638;28;20502;-58
2021/09/02 10:50:38;;;;;;;16.88;8.38;;;27.90;95.00;;;;;;5089955;28;20129;-59
2021/09/02 10:53:16;;;;;;;13.30;7.28;;;27.80;95.10;;;;;;5090426;28;20533;-57
2021/09/02 10:55:54;;;;;;;17.65;7.70;;;27.80;95.40;;;;;;5089758;28;20098;-57
2021/09/02 10:58:41;;;;;;;16.38;7.07;;;27.80;95.40;;;;;;5090939;28;20077;-59
2021/09/02 11:01:22;;;;;;;;;;;27.80;95.50;;;;;;5091770;28;20533;-59
2021/09/02 11:03:50;;;;;;;19.25;8.05;;;27.70;95.60;;;;;;5089633;28;19977;-59
2021/09/02 11:06:17;;;;;;;17.67;7.97;;;27.70;95.60;;;;;;5091544;28;20535;-58
2021/09/02 11:08:43;;;;;;;16.67;7.43;;;27.60;95.90;;;;;;5091516;28;20337;-60
2021/09/02 11:11:15;;;;;;;16.42;8.43;;;27.70;95.90;;;;;;5092480;28;20526;-59
2021/09/02 11:13:43;;;;;;;17.70;7.82;;;27.70;96.20;;;;;;5091040;28;20444;-60
2021/09/02 11:16:17;;;;;;;17.70;7.75;;;27.70;96.30;;;;;;5089929;28;20081;-60
2021/09/02 11:18:45;;;;;;;16.23;7.88;;;27.60;96.20;;;;;;5090686;28;20677;-60
2021/09/02 11:21:18;;;;;;;20.17;8.15;;;27.60;96.30;;;;;;5088769;28;20108;-60
2021/09/02 11:23:46;;;;;;;19.67;7.90;;;27.60;95.80;;;;;;5089984;28;20132;-60
2021/09/02 11:26:29;;;;;;;25.63;8.20;;;27.60;96.00;;;;;;5091104;28;20081;-60
2021/09/02 11:28:56;;;;;;;21.95;8.30;;;27.60;96.90;;;;;;5092788;28;20069;-60
2021/09/02 11:31:22;;;;;;;19.60;8.77;;;27.70;96.10;;;;;;5091890;28;20073;-60
2021/09/02 11:33:51;;;;;;;20.23;8.95;;;27.70;95.80;;;;;;5089983;28;20128;-58
2021/09/02 11:36:19;;;;;;;20.65;7.82;;;27.60;95.40;;;;;;5092227;28;20076;-60
2021/09/02 11:38:47;;;;;;;22.83;7.43;;;27.60;94.60;;;;;;5091012;28;21649;-60
2021/09/02 11:41:23;;;;;;;21.65;7.57;;;27.60;94.90;;;;;;5090458;28;21457;-60
2021/09/02 11:43:51;;;;;;;24.98;7.38;;;27.60;95.10;;;;;;5090003;28;20163;-59
2021/09/02 11:46:19;;;;;;;19.80;6.90;;;27.70;94.30;;;;;;5089711;28;20568;-59
2021/09/02 11:48:50;;;;;;;18.45;6.43;;;27.70;94.10;;;;;;5090195;28;21072;-60
2021/09/02 11:51:30;;;;;;;21.65;7.35;;;27.70;96.00;;;;;;5089647;28;20084;-58
2021/09/02 11:54:09;;;;;;;18.63;6.57;;;27.70;94.20;;;;;;5090635;28;20077;-60
2021/09/02 11:56:37;;;;;;;21.60;6.80;;;27.70;94.30;;;;;;5090425;28;20096;-57
2021/09/02 11:59:06;;;;;;;14.40;6.50;;;27.60;93.90;;;;;;5087417;28;20171;-59
2021/09/02 12:01:33;;;;;;;16.90;7.03;;;27.70;94.00;;;;;;5088691;28;20062;-60
2021/09/02 12:04:00;;;;;;;13.18;6.22;;;27.60;94.20;;;;;;5089030;28;20101;-59
2021/09/02 12:06:30;;;;;;;19.63;7.10;;;27.60;94.10;;;;;;5090675;28;20126;-59
2021/09/02 12:09:02;;;;;;;20.38;6.18;;;27.70;93.70;;;;;;5088742;28;20128;-60
2021/09/02 12:11:30;;;;;;;15.70;6.70;;;27.70;93.50;;;;;;5089449;28;20119;-59
2021/09/02 12:13:57;;;;;;;17.50;6.35;;;27.70;93.20;;;;;;5088904;28;20098;-58
2021/09/02 12:16:33;;;;;;;11.68;6.20;;;27.90;99.90;;;;;;5088836;28;20076;-60
2021/09/02 12:19:00;;;;;;;17.93;6.60;;;27.60;93.10;;;;;;5090557;28;20083;-60
2021/09/02 12:21:30;;;;;;;16.25;6.72;;;27.60;93.60;;;;;;5087919;28;20318;-59
2021/09/02 12:24:11;;;;;;;18.05;6.18;;;27.60;93.60;;;;;;5089861;28;21479;-55
2021/09/02 12:26:55;;;;;;;19.10;6.70;;;27.50;93.40;;;;;;5089241;28;20075;-60
2021/09/02 12:29:23;;;;;;;19.38;7.10;;;27.50;94.00;;;;;;5089575;28;20380;-58
2021/09/02 12:31:52;;;;;;;17.63;7.32;;;27.40;94.20;;;;;;5091535;28;20072;-59
2021/09/02 12:34:28;;;;;;;17.08;7.22;;;27.40;94.00;;;;;;5091665;28;20439;-58
2021/09/02 12:37:06;;;;;;;17.63;7.70;;;27.50;93.90;;;;;;5090700;28;20082;-58
2021/09/02 12:39:34;;;;;;;20.00;6.70;;;27.50;93.40;;;;;;5089617;28;20474;-59
2021/09/02 12:42:05;;;;;;;20.15;6.65;;;27.50;93.90;;;;;;5088777;28;20490;-60
2021/09/02 12:44:36;;;;;;;16.35;6.60;;;27.50;99.90;;;;;;5089004;28;20087;-59
2021/09/02 12:47:17;;;;;;;17.10;6.53;;;27.50;94.10;;;;;;5090177;28;20517;-59
2021/09/02 12:49:50;;;;;;;18.60;7.50;;;27.40;97.40;;;;;;5086872;28;20079;-60
2021/09/02 12:52:25;;;;;;;16.98;6.95;;;27.40;94.30;;;;;;5089837;28;20095;-60